sensor_id;sensor_type;location;lat;lon;timestamp;P1;durP1;ratioP1;P2;durP2;ratioP2
29370;SDS011;16357;52.188;7.838;2023-01-25T00:01:02;19.63;;;14.75;;
29370;SDS011;16357;52.188;7.838;2023-01-25T00:03:29;21.70;;;15.93;;
29370;SDS011;16357;52.188;7.838;2023-01-25T00:05:59;19.17;;;14.52;;
29370;SDS011;16357;52.188;7.838;2023-01-25T00:08:26;20.42;;;15.38;;
29370;SDS011;16357;52.188;7.838;2023-01-25T00:10:53;19.80;;;14.82;;
29370;SDS011;16357;52.188;7.838;2023-01-25T00:13:22;19.15;;;14.82;;
29370;SDS011;16357;52.188;7.838;2023-01-25T00:15:49;19.52;;;14.25;;
29370;SDS011;16357;52.188;7.838;2023-01-25T00:18:15;21.52;;;14.57;;
29370;SDS011;16357;52.188;7.838;2023-01-25T00:20:41;22.95;;;16.13;;
29370;SDS011;16357;52.188;7.838;2023-01-25T00:23:08;21.83;;;15.23;;
29370;SDS011;16357;52.188;7.838;2023-01-25T00:25:34;19.67;;;14.95;;
29370;SDS011;16357;52.188;7.838;2023-01-25T00:28:00;18.98;;;14.88;;
29370;SDS011;16357;52.188;7.838;2023-01-25T00:30:27;21.10;;;15.82;;
29370;SDS011;16357;52.188;7.838;2023-01-25T00:33:27;21.27;;;16.08;;
29370;SDS011;16357;52.188;7.838;2023-01-25T00:35:54;22.48;;;16.52;;
29370;SDS011;16357;52.188;7.838;2023-01-25T00:40:51;20.45;;;15.38;;
29370;SDS011;16357;52.188;7.838;2023-01-25T00:43:17;21.05;;;15.40;;
29370;SDS011;16357;52.188;7.838;2023-01-25T00:45:44;22.42;;;15.85;;
29370;SDS011;16357;52.188;7.838;2023-01-25T00:48:10;21.15;;;15.52;;
29370;SDS011;16357;52.188;7.838;2023-01-25T00:50:37;23.92;;;16.85;;
29370;SDS011;16357;52.188;7.838;2023-01-25T00:53:03;22.25;;;15.95;;
29370;SDS011;16357;52.188;7.838;2023-01-25T00:55:30;20.75;;;15.25;;
29370;SDS011;16357;52.188;7.838;2023-01-25T00:57:56;20.35;;;15.05;;
29370;SDS011;16357;52.188;7.838;2023-01-25T01:00:23;22.33;;;16.17;;
29370;SDS011;16357;52.188;7.838;2023-01-25T01:02:49;21.13;;;15.88;;
29370;SDS011;16357;52.188;7.838;2023-01-25T01:05:16;21.98;;;16.13;;
29370;SDS011;16357;52.188;7.838;2023-01-25T01:07:42;21.25;;;16.02;;
29370;SDS011;16357;52.188;7.838;2023-01-25T01:10:09;21.27;;;15.23;;
29370;SDS011;16357;52.188;7.838;2023-01-25T01:12:35;22.33;;;15.93;;
29370;SDS011;16357;52.188;7.838;2023-01-25T01:15:02;24.45;;;17.08;;
29370;SDS011;16357;52.188;7.838;2023-01-25T01:17:29;23.55;;;16.63;;
29370;SDS011;16357;52.188;7.838;2023-01-25T01:19:55;22.75;;;16.75;;
29370;SDS011;16357;52.188;7.838;2023-01-25T01:22:21;22.05;;;16.80;;
29370;SDS011;16357;52.188;7.838;2023-01-25T01:24:48;21.83;;;16.70;;
29370;SDS011;16357;52.188;7.838;2023-01-25T01:27:14;21.75;;;16.25;;
29370;SDS011;16357;52.188;7.838;2023-01-25T01:29:41;20.67;;;16.45;;
29370;SDS011;16357;52.188;7.838;2023-01-25T01:32:07;23.30;;;16.80;;
29370;SDS011;16357;52.188;7.838;2023-01-25T01:34:34;23.52;;;16.58;;
29370;SDS011;16357;52.188;7.838;2023-01-25T01:37:00;24.58;;;17.40;;
29370;SDS011;16357;52.188;7.838;2023-01-25T01:39:26;24.23;;;17.33;;
29370;SDS011;16357;52.188;7.838;2023-01-25T01:41:53;22.83;;;17.17;;
29370;SDS011;16357;52.188;7.838;2023-01-25T01:44:20;22.20;;;16.98;;
29370;SDS011;16357;52.188;7.838;2023-01-25T01:47:07;22.13;;;16.10;;
29370;SDS011;16357;52.188;7.838;2023-01-25T01:49:40;23.40;;;16.98;;
29370;SDS011;16357;52.188;7.838;2023-01-25T01:52:14;21.23;;;15.32;;
29370;SDS011;16357;52.188;7.838;2023-01-25T01:54:45;21.98;;;16.75;;
29370;SDS011;16357;52.188;7.838;2023-01-25T01:57:23;21.60;;;16.08;;
29370;SDS011;16357;52.188;7.838;2023-01-25T01:59:56;21.58;;;16.40;;
29370;SDS011;16357;52.188;7.838;2023-01-25T02:02:27;21.17;;;15.48;;
29370;SDS011;16357;52.188;7.838;2023-01-25T02:04:55;21.05;;;15.27;;
29370;SDS011;16357;52.188;7.838;2023-01-25T02:07:32;21.42;;;15.45;;
29370;SDS011;16357;52.188;7.838;2023-01-25T02:10:01;22.40;;;15.77;;
29370;SDS011;16357;52.188;7.838;2023-01-25T02:12:29;20.38;;;14.15;;
29370;SDS011;16357;52.188;7.838;2023-01-25T02:14:57;19.83;;;14.77;;
29370;SDS011;16357;52.188;7.838;2023-01-25T02:17:31;21.70;;;14.80;;
29370;SDS011;16357;52.188;7.838;2023-01-25T02:22:34;21.65;;;15.98;;
29370;SDS011;16357;52.188;7.838;2023-01-25T02:25:10;21.63;;;15.43;;
29370;SDS011;16357;52.188;7.838;2023-01-25T02:27:39;20.10;;;14.80;;
29370;SDS011;16357;52.188;7.838;2023-01-25T02:30:11;21.40;;;14.85;;
29370;SDS011;16357;52.188;7.838;2023-01-25T02:32:37;20.98;;;15.10;;
29370;SDS011;16357;52.188;7.838;2023-01-25T02:35:04;20.92;;;15.02;;
29370;SDS011;16357;52.188;7.838;2023-01-25T02:37:32;21.90;;;15.50;;
29370;SDS011;16357;52.188;7.838;2023-01-25T02:39:58;20.65;;;15.35;;
29370;SDS011;16357;52.188;7.838;2023-01-25T02:42:28;21.70;;;15.50;;
29370;SDS011;16357;52.188;7.838;2023-01-25T02:44:55;23.73;;;16.98;;
29370;SDS011;16357;52.188;7.838;2023-01-25T02:47:22;23.50;;;17.02;;
29370;SDS011;16357;52.188;7.838;2023-01-25T02:49:48;24.00;;;16.15;;
29370;SDS011;16357;52.188;7.838;2023-01-25T02:52:15;23.58;;;16.38;;
29370;SDS011;16357;52.188;7.838;2023-01-25T02:54:41;23.10;;;16.45;;
29370;SDS011;16357;52.188;7.838;2023-01-25T02:57:08;21.95;;;15.95;;
29370;SDS011;16357;52.188;7.838;2023-01-25T02:59:34;21.35;;;15.55;;
29370;SDS011;16357;52.188;7.838;2023-01-25T03:02:01;24.05;;;16.20;;
29370;SDS011;16357;52.188;7.838;2023-01-25T03:04:28;23.08;;;16.33;;
29370;SDS011;16357;52.188;7.838;2023-01-25T03:06:54;22.40;;;15.73;;
29370;SDS011;16357;52.188;7.838;2023-01-25T03:09:21;20.67;;;15.68;;
29370;SDS011;16357;52.188;7.838;2023-01-25T03:11:47;22.67;;;16.35;;
29370;SDS011;16357;52.188;7.838;2023-01-25T03:14:14;22.35;;;15.93;;
29370;SDS011;16357;52.188;7.838;2023-01-25T03:16:40;21.48;;;15.25;;
29370;SDS011;16357;52.188;7.838;2023-01-25T03:19:06;23.10;;;16.48;;
29370;SDS011;16357;52.188;7.838;2023-01-25T03:21:33;24.73;;;15.57;;
29370;SDS011;16357;52.188;7.838;2023-01-25T03:24:00;23.40;;;16.33;;
29370;SDS011;16357;52.188;7.838;2023-01-25T03:26:27;22.15;;;15.60;;
29370;SDS011;16357;52.188;7.838;2023-01-25T03:28:54;25.02;;;17.20;;
29370;SDS011;16357;52.188;7.838;2023-01-25T03:31:21;22.20;;;15.70;;
29370;SDS011;16357;52.188;7.838;2023-01-25T03:33:47;23.70;;;16.67;;
29370;SDS011;16357;52.188;7.838;2023-01-25T03:36:14;24.88;;;16.35;;
29370;SDS011;16357;52.188;7.838;2023-01-25T03:38:41;25.77;;;16.73;;
29370;SDS011;16357;52.188;7.838;2023-01-25T03:41:07;25.08;;;16.98;;
29370;SDS011;16357;52.188;7.838;2023-01-25T03:43:34;24.80;;;17.17;;
29370;SDS011;16357;52.188;7.838;2023-01-25T03:46:00;25.98;;;17.52;;
29370;SDS011;16357;52.188;7.838;2023-01-25T03:48:27;26.52;;;17.50;;
29370;SDS011;16357;52.188;7.838;2023-01-25T03:50:56;24.02;;;17.08;;
29370;SDS011;16357;52.188;7.838;2023-01-25T03:53:24;24.67;;;16.92;;
29370;SDS011;16357;52.188;7.838;2023-01-25T03:55:58;25.42;;;17.80;;
29370;SDS011;16357;52.188;7.838;2023-01-25T03:58:27;27.38;;;18.33;;
29370;SDS011;16357;52.188;7.838;2023-01-25T04:00:56;26.27;;;17.33;;
29370;SDS011;16357;52.188;7.838;2023-01-25T04:03:24;26.38;;;17.55;;
29370;SDS011;16357;52.188;7.838;2023-01-25T04:05:51;28.52;;;18.45;;
29370;SDS011;16357;52.188;7.838;2023-01-25T04:08:18;29.58;;;19.85;;
29370;SDS011;16357;52.188;7.838;2023-01-25T04:10:49;31.45;;;19.70;;
29370;SDS011;16357;52.188;7.838;2023-01-25T04:13:19;30.42;;;19.45;;
29370;SDS011;16357;52.188;7.838;2023-01-25T04:15:47;29.25;;;19.10;;
29370;SDS011;16357;52.188;7.838;2023-01-25T04:18:14;30.80;;;20.63;;
29370;SDS011;16357;52.188;7.838;2023-01-25T04:20:41;32.60;;;21.23;;
29370;SDS011;16357;52.188;7.838;2023-01-25T04:23:08;32.58;;;20.73;;
29370;SDS011;16357;52.188;7.838;2023-01-25T04:25:35;32.25;;;20.88;;
29370;SDS011;16357;52.188;7.838;2023-01-25T04:28:02;32.17;;;20.83;;
29370;SDS011;16357;52.188;7.838;2023-01-25T04:30:30;33.15;;;20.83;;
29370;SDS011;16357;52.188;7.838;2023-01-25T04:33:00;33.15;;;21.05;;
29370;SDS011;16357;52.188;7.838;2023-01-25T04:35:28;32.22;;;21.17;;
29370;SDS011;16357;52.188;7.838;2023-01-25T04:37:55;31.92;;;20.13;;
29370;SDS011;16357;52.188;7.838;2023-01-25T04:40:22;32.85;;;21.17;;
29370;SDS011;16357;52.188;7.838;2023-01-25T04:42:49;34.67;;;22.08;;
29370;SDS011;16357;52.188;7.838;2023-01-25T04:45:15;31.70;;;20.85;;
29370;SDS011;16357;52.188;7.838;2023-01-25T04:47:41;33.55;;;21.65;;
29370;SDS011;16357;52.188;7.838;2023-01-25T04:50:08;34.17;;;20.85;;
29370;SDS011;16357;52.188;7.838;2023-01-25T04:52:35;32.53;;;21.70;;
29370;SDS011;16357;52.188;7.838;2023-01-25T04:55:01;37.40;;;22.90;;
29370;SDS011;16357;52.188;7.838;2023-01-25T04:57:28;33.83;;;22.23;;
29370;SDS011;16357;52.188;7.838;2023-01-25T04:59:54;35.08;;;22.48;;
29370;SDS011;16357;52.188;7.838;2023-01-25T05:02:21;37.40;;;22.92;;
29370;SDS011;16357;52.188;7.838;2023-01-25T05:04:47;36.35;;;22.98;;
29370;SDS011;16357;52.188;7.838;2023-01-25T05:07:14;37.55;;;22.20;;
29370;SDS011;16357;52.188;7.838;2023-01-25T05:09:40;37.45;;;23.70;;
29370;SDS011;16357;52.188;7.838;2023-01-25T05:12:07;36.60;;;23.30;;
29370;SDS011;16357;52.188;7.838;2023-01-25T05:14:37;34.47;;;21.67;;
29370;SDS011;16357;52.188;7.838;2023-01-25T05:17:04;37.38;;;23.27;;
29370;SDS011;16357;52.188;7.838;2023-01-25T05:19:32;37.53;;;23.33;;
29370;SDS011;16357;52.188;7.838;2023-01-25T05:21:59;38.25;;;23.83;;
29370;SDS011;16357;52.188;7.838;2023-01-25T05:24:29;40.78;;;24.73;;
29370;SDS011;16357;52.188;7.838;2023-01-25T05:26:56;39.90;;;24.77;;
29370;SDS011;16357;52.188;7.838;2023-01-25T05:29:26;37.55;;;24.13;;
29370;SDS011;16357;52.188;7.838;2023-01-25T05:31:53;38.15;;;24.30;;
29370;SDS011;16357;52.188;7.838;2023-01-25T05:34:20;40.33;;;23.83;;
29370;SDS011;16357;52.188;7.838;2023-01-25T05:36:46;39.22;;;24.38;;
29370;SDS011;16357;52.188;7.838;2023-01-25T05:39:13;39.45;;;24.63;;
29370;SDS011;16357;52.188;7.838;2023-01-25T05:41:39;40.95;;;23.40;;
29370;SDS011;16357;52.188;7.838;2023-01-25T05:44:06;41.78;;;26.25;;
29370;SDS011;16357;52.188;7.838;2023-01-25T05:46:32;42.90;;;26.70;;
29370;SDS011;16357;52.188;7.838;2023-01-25T05:48:59;39.05;;;24.88;;
29370;SDS011;16357;52.188;7.838;2023-01-25T05:51:25;40.78;;;25.40;;
29370;SDS011;16357;52.188;7.838;2023-01-25T05:53:54;41.47;;;25.30;;
29370;SDS011;16357;52.188;7.838;2023-01-25T05:56:21;44.13;;;25.58;;
29370;SDS011;16357;52.188;7.838;2023-01-25T05:58:54;38.65;;;24.88;;
29370;SDS011;16357;52.188;7.838;2023-01-25T06:01:22;40.90;;;24.80;;
29370;SDS011;16357;52.188;7.838;2023-01-25T06:03:49;42.65;;;26.17;;
29370;SDS011;16357;52.188;7.838;2023-01-25T06:06:16;39.05;;;24.67;;
29370;SDS011;16357;52.188;7.838;2023-01-25T06:08:43;41.40;;;25.88;;
29370;SDS011;16357;52.188;7.838;2023-01-25T06:11:10;41.00;;;26.10;;
29370;SDS011;16357;52.188;7.838;2023-01-25T06:13:38;42.38;;;25.77;;
29370;SDS011;16357;52.188;7.838;2023-01-25T06:16:05;40.15;;;26.35;;
29370;SDS011;16357;52.188;7.838;2023-01-25T06:18:32;41.03;;;25.73;;
29370;SDS011;16357;52.188;7.838;2023-01-25T06:21:00;38.97;;;24.27;;
29370;SDS011;16357;52.188;7.838;2023-01-25T06:23:28;41.97;;;25.42;;
29370;SDS011;16357;52.188;7.838;2023-01-25T06:26:01;40.30;;;25.35;;
29370;SDS011;16357;52.188;7.838;2023-01-25T06:28:33;38.90;;;24.27;;
29370;SDS011;16357;52.188;7.838;2023-01-25T06:31:05;38.72;;;24.38;;
29370;SDS011;16357;52.188;7.838;2023-01-25T06:33:36;41.90;;;25.65;;
29370;SDS011;16357;52.188;7.838;2023-01-25T06:36:03;39.65;;;25.00;;
29370;SDS011;16357;52.188;7.838;2023-01-25T06:38:32;38.13;;;24.98;;
29370;SDS011;16357;52.188;7.838;2023-01-25T06:40:59;39.25;;;24.70;;
29370;SDS011;16357;52.188;7.838;2023-01-25T06:43:26;38.60;;;24.17;;
29370;SDS011;16357;52.188;7.838;2023-01-25T06:45:57;36.92;;;23.20;;
29370;SDS011;16357;52.188;7.838;2023-01-25T06:48:27;37.20;;;23.67;;
29370;SDS011;16357;52.188;7.838;2023-01-25T06:50:57;40.15;;;23.85;;
29370;SDS011;16357;52.188;7.838;2023-01-25T06:53:26;35.97;;;22.65;;
29370;SDS011;16357;52.188;7.838;2023-01-25T06:55:56;36.05;;;22.77;;
29370;SDS011;16357;52.188;7.838;2023-01-25T06:58:27;39.47;;;24.42;;
29370;SDS011;16357;52.188;7.838;2023-01-25T07:01:10;36.35;;;23.45;;
29370;SDS011;16357;52.188;7.838;2023-01-25T07:03:38;40.63;;;24.88;;
29370;SDS011;16357;52.188;7.838;2023-01-25T07:06:06;40.47;;;24.73;;
29370;SDS011;16357;52.188;7.838;2023-01-25T07:08:33;39.13;;;25.05;;
29370;SDS011;16357;52.188;7.838;2023-01-25T07:11:02;39.33;;;24.25;;
29370;SDS011;16357;52.188;7.838;2023-01-25T07:13:30;38.38;;;23.92;;
29370;SDS011;16357;52.188;7.838;2023-01-25T07:15:59;36.50;;;23.35;;
29370;SDS011;16357;52.188;7.838;2023-01-25T07:18:31;38.15;;;23.23;;
29370;SDS011;16357;52.188;7.838;2023-01-25T07:21:02;37.42;;;23.10;;
29370;SDS011;16357;52.188;7.838;2023-01-25T07:23:34;35.13;;;21.48;;
29370;SDS011;16357;52.188;7.838;2023-01-25T07:26:03;37.30;;;22.45;;
29370;SDS011;16357;52.188;7.838;2023-01-25T07:28:31;34.65;;;22.40;;
29370;SDS011;16357;52.188;7.838;2023-01-25T07:31:04;40.50;;;23.30;;
29370;SDS011;16357;52.188;7.838;2023-01-25T07:33:32;35.90;;;22.92;;
29370;SDS011;16357;52.188;7.838;2023-01-25T07:36:01;35.45;;;21.35;;
29370;SDS011;16357;52.188;7.838;2023-01-25T07:38:28;36.45;;;22.10;;
29370;SDS011;16357;52.188;7.838;2023-01-25T07:40:55;36.92;;;23.13;;
29370;SDS011;16357;52.188;7.838;2023-01-25T07:43:22;37.70;;;22.83;;
29370;SDS011;16357;52.188;7.838;2023-01-25T07:45:49;38.97;;;23.23;;
29370;SDS011;16357;52.188;7.838;2023-01-25T07:48:16;38.08;;;23.77;;
29370;SDS011;16357;52.188;7.838;2023-01-25T07:50:43;34.90;;;22.75;;
29370;SDS011;16357;52.188;7.838;2023-01-25T07:53:15;38.08;;;24.05;;
29370;SDS011;16357;52.188;7.838;2023-01-25T07:55:42;35.65;;;22.85;;
29370;SDS011;16357;52.188;7.838;2023-01-25T07:58:09;41.30;;;24.77;;
29370;SDS011;16357;52.188;7.838;2023-01-25T08:00:36;41.22;;;24.42;;
29370;SDS011;16357;52.188;7.838;2023-01-25T08:03:02;40.22;;;25.08;;
29370;SDS011;16357;52.188;7.838;2023-01-25T08:05:29;37.88;;;23.23;;
29370;SDS011;16357;52.188;7.838;2023-01-25T08:07:55;37.33;;;22.63;;
29370;SDS011;16357;52.188;7.838;2023-01-25T08:10:22;36.00;;;22.13;;
29370;SDS011;16357;52.188;7.838;2023-01-25T08:12:48;33.67;;;21.88;;
29370;SDS011;16357;52.188;7.838;2023-01-25T08:15:14;35.03;;;23.17;;
29370;SDS011;16357;52.188;7.838;2023-01-25T08:17:41;38.78;;;23.15;;
29370;SDS011;16357;52.188;7.838;2023-01-25T08:20:07;36.63;;;22.38;;
29370;SDS011;16357;52.188;7.838;2023-01-25T08:22:34;36.92;;;23.08;;
29370;SDS011;16357;52.188;7.838;2023-01-25T08:25:02;34.72;;;21.60;;
29370;SDS011;16357;52.188;7.838;2023-01-25T08:27:29;34.22;;;21.92;;
29370;SDS011;16357;52.188;7.838;2023-01-25T08:29:55;33.55;;;21.70;;
29370;SDS011;16357;52.188;7.838;2023-01-25T08:32:24;37.60;;;22.83;;
29370;SDS011;16357;52.188;7.838;2023-01-25T08:34:50;36.78;;;22.30;;
29370;SDS011;16357;52.188;7.838;2023-01-25T08:37:17;36.20;;;22.08;;
29370;SDS011;16357;52.188;7.838;2023-01-25T08:39:43;34.67;;;22.10;;
29370;SDS011;16357;52.188;7.838;2023-01-25T08:42:10;34.75;;;22.33;;
29370;SDS011;16357;52.188;7.838;2023-01-25T08:44:36;37.35;;;22.83;;
29370;SDS011;16357;52.188;7.838;2023-01-25T08:47:02;33.25;;;21.88;;
29370;SDS011;16357;52.188;7.838;2023-01-25T08:49:29;36.22;;;22.73;;
29370;SDS011;16357;52.188;7.838;2023-01-25T08:51:56;35.70;;;22.00;;
29370;SDS011;16357;52.188;7.838;2023-01-25T08:54:23;35.45;;;22.88;;
29370;SDS011;16357;52.188;7.838;2023-01-25T08:56:50;36.28;;;23.08;;
29370;SDS011;16357;52.188;7.838;2023-01-25T08:59:16;38.50;;;22.67;;
29370;SDS011;16357;52.188;7.838;2023-01-25T09:01:42;35.20;;;21.95;;
29370;SDS011;16357;52.188;7.838;2023-01-25T09:04:09;32.35;;;21.38;;
29370;SDS011;16357;52.188;7.838;2023-01-25T09:06:35;33.55;;;21.83;;
29370;SDS011;16357;52.188;7.838;2023-01-25T09:09:02;33.53;;;22.15;;
29370;SDS011;16357;52.188;7.838;2023-01-25T09:11:31;34.58;;;20.83;;
29370;SDS011;16357;52.188;7.838;2023-01-25T09:13:59;34.78;;;20.55;;
29370;SDS011;16357;52.188;7.838;2023-01-25T09:16:26;34.42;;;21.90;;
29370;SDS011;16357;52.188;7.838;2023-01-25T09:18:55;32.13;;;21.25;;
29370;SDS011;16357;52.188;7.838;2023-01-25T09:21:23;33.20;;;21.35;;
29370;SDS011;16357;52.188;7.838;2023-01-25T09:23:50;33.72;;;21.08;;
29370;SDS011;16357;52.188;7.838;2023-01-25T09:26:31;36.03;;;21.92;;
29370;SDS011;16357;52.188;7.838;2023-01-25T09:29:06;34.45;;;21.50;;
29370;SDS011;16357;52.188;7.838;2023-01-25T09:31:33;35.17;;;22.02;;
29370;SDS011;16357;52.188;7.838;2023-01-25T09:34:00;32.75;;;21.60;;
29370;SDS011;16357;52.188;7.838;2023-01-25T09:36:27;32.67;;;20.67;;
29370;SDS011;16357;52.188;7.838;2023-01-25T09:38:54;37.58;;;22.33;;
29370;SDS011;16357;52.188;7.838;2023-01-25T09:44:07;34.45;;;22.20;;
29370;SDS011;16357;52.188;7.838;2023-01-25T09:46:48;35.40;;;22.20;;
29370;SDS011;16357;52.188;7.838;2023-01-25T09:54:41;33.70;;;21.33;;
29370;SDS011;16357;52.188;7.838;2023-01-25T09:57:21;32.22;;;20.38;;
29370;SDS011;16357;52.188;7.838;2023-01-25T09:59:53;34.58;;;20.55;;
29370;SDS011;16357;52.188;7.838;2023-01-25T10:02:27;36.33;;;21.77;;
29370;SDS011;16357;52.188;7.838;2023-01-25T10:05:06;38.72;;;21.40;;
29370;SDS011;16357;52.188;7.838;2023-01-25T10:10:39;33.35;;;21.50;;
29370;SDS011;16357;52.188;7.838;2023-01-25T10:13:10;34.83;;;22.08;;
29370;SDS011;16357;52.188;7.838;2023-01-25T10:15:40;31.63;;;21.38;;
29370;SDS011;16357;52.188;7.838;2023-01-25T10:20:50;33.50;;;21.58;;
29370;SDS011;16357;52.188;7.838;2023-01-25T10:26:03;35.85;;;22.90;;
29370;SDS011;16357;52.188;7.838;2023-01-25T10:31:18;37.17;;;23.02;;
29370;SDS011;16357;52.188;7.838;2023-01-25T10:33:50;36.47;;;22.55;;
29370;SDS011;16357;52.188;7.838;2023-01-25T10:36:24;36.40;;;22.77;;
29370;SDS011;16357;52.188;7.838;2023-01-25T10:38:55;34.05;;;21.90;;
29370;SDS011;16357;52.188;7.838;2023-01-25T10:41:35;36.30;;;22.65;;
29370;SDS011;16357;52.188;7.838;2023-01-25T10:44:22;33.47;;;21.35;;
29370;SDS011;16357;52.188;7.838;2023-01-25T10:46:54;33.78;;;21.58;;
29370;SDS011;16357;52.188;7.838;2023-01-25T10:49:26;34.00;;;21.65;;
29370;SDS011;16357;52.188;7.838;2023-01-25T10:52:11;35.58;;;22.15;;
29370;SDS011;16357;52.188;7.838;2023-01-25T10:55:03;33.88;;;21.77;;
29370;SDS011;16357;52.188;7.838;2023-01-25T10:57:43;35.53;;;21.55;;
29370;SDS011;16357;52.188;7.838;2023-01-25T11:02:48;33.03;;;21.42;;
29370;SDS011;16357;52.188;7.838;2023-01-25T11:11:24;33.55;;;19.90;;
29370;SDS011;16357;52.188;7.838;2023-01-25T11:13:56;32.45;;;19.73;;
29370;SDS011;16357;52.188;7.838;2023-01-25T11:16:42;33.80;;;20.45;;
29370;SDS011;16357;52.188;7.838;2023-01-25T11:19:23;32.83;;;20.80;;
29370;SDS011;16357;52.188;7.838;2023-01-25T11:21:56;35.08;;;21.13;;
29370;SDS011;16357;52.188;7.838;2023-01-25T11:24:27;30.60;;;19.38;;
29370;SDS011;16357;52.188;7.838;2023-01-25T11:27:10;34.70;;;21.25;;
29370;SDS011;16357;52.188;7.838;2023-01-25T11:29:38;36.53;;;20.58;;
29370;SDS011;16357;52.188;7.838;2023-01-25T11:32:12;33.78;;;20.73;;
29370;SDS011;16357;52.188;7.838;2023-01-25T11:34:45;37.67;;;21.73;;
29370;SDS011;16357;52.188;7.838;2023-01-25T11:48:05;34.47;;;20.60;;
29370;SDS011;16357;52.188;7.838;2023-01-25T11:50:44;31.55;;;20.00;;
29370;SDS011;16357;52.188;7.838;2023-01-25T12:04:38;31.75;;;20.58;;
29370;SDS011;16357;52.188;7.838;2023-01-25T12:10:41;33.42;;;20.63;;
29370;SDS011;16357;52.188;7.838;2023-01-25T12:13:25;32.83;;;20.27;;
29370;SDS011;16357;52.188;7.838;2023-01-25T12:16:03;34.05;;;21.50;;
29370;SDS011;16357;52.188;7.838;2023-01-25T12:18:37;31.25;;;19.85;;
29370;SDS011;16357;52.188;7.838;2023-01-25T12:24:10;33.20;;;20.65;;
29370;SDS011;16357;52.188;7.838;2023-01-25T12:29:33;34.00;;;20.65;;
29370;SDS011;16357;52.188;7.838;2023-01-25T12:32:08;33.63;;;20.55;;
29370;SDS011;16357;52.188;7.838;2023-01-25T12:34:43;32.85;;;20.70;;
29370;SDS011;16357;52.188;7.838;2023-01-25T12:37:16;36.30;;;21.67;;
29370;SDS011;16357;52.188;7.838;2023-01-25T12:40:02;37.75;;;23.17;;
29370;SDS011;16357;52.188;7.838;2023-01-25T12:42:46;37.72;;;22.65;;
29370;SDS011;16357;52.188;7.838;2023-01-25T12:45:23;34.28;;;22.02;;
29370;SDS011;16357;52.188;7.838;2023-01-25T12:47:56;38.95;;;22.67;;
29370;SDS011;16357;52.188;7.838;2023-01-25T12:50:30;36.72;;;22.05;;
29370;SDS011;16357;52.188;7.838;2023-01-25T12:53:05;37.72;;;22.70;;
29370;SDS011;16357;52.188;7.838;2023-01-25T12:55:50;35.10;;;20.85;;
29370;SDS011;16357;52.188;7.838;2023-01-25T12:58:20;35.30;;;21.52;;
29370;SDS011;16357;52.188;7.838;2023-01-25T13:03:59;34.20;;;20.98;;
29370;SDS011;16357;52.188;7.838;2023-01-25T13:06:47;33.97;;;21.73;;
29370;SDS011;16357;52.188;7.838;2023-01-25T13:09:26;36.47;;;21.95;;
29370;SDS011;16357;52.188;7.838;2023-01-25T13:17:41;36.05;;;21.58;;
29370;SDS011;16357;52.188;7.838;2023-01-25T13:19:47;38.20;;;21.50;;
29370;SDS011;16357;52.188;7.838;2023-01-25T13:22:53;38.10;;;22.05;;
29370;SDS011;16357;52.188;7.838;2023-01-25T13:27:42;39.75;;;24.27;;
29370;SDS011;16357;52.188;7.838;2023-01-25T13:35:33;42.03;;;23.75;;
29370;SDS011;16357;52.188;7.838;2023-01-25T13:38:03;39.47;;;24.47;;
29370;SDS011;16357;52.188;7.838;2023-01-25T13:41:09;39.53;;;23.85;;
29370;SDS011;16357;52.188;7.838;2023-01-25T13:43:38;42.13;;;24.42;;
29370;SDS011;16357;52.188;7.838;2023-01-25T13:46:06;40.88;;;24.60;;
29370;SDS011;16357;52.188;7.838;2023-01-25T13:48:35;40.25;;;24.73;;
29370;SDS011;16357;52.188;7.838;2023-01-25T13:51:10;44.67;;;26.30;;
29370;SDS011;16357;52.188;7.838;2023-01-25T13:53:41;42.03;;;24.95;;
29370;SDS011;16357;52.188;7.838;2023-01-25T13:59:23;41.30;;;24.25;;
29370;SDS011;16357;52.188;7.838;2023-01-25T14:01:51;38.13;;;23.85;;
29370;SDS011;16357;52.188;7.838;2023-01-25T14:04:18;42.25;;;24.92;;
29370;SDS011;16357;52.188;7.838;2023-01-25T14:06:44;41.05;;;24.98;;
29370;SDS011;16357;52.188;7.838;2023-01-25T14:09:12;40.75;;;24.27;;
29370;SDS011;16357;52.188;7.838;2023-01-25T14:11:43;44.38;;;26.85;;
29370;SDS011;16357;52.188;7.838;2023-01-25T14:17:12;46.20;;;26.65;;
29370;SDS011;16357;52.188;7.838;2023-01-25T14:19:42;48.35;;;27.05;;
29370;SDS011;16357;52.188;7.838;2023-01-25T14:25:01;46.08;;;25.92;;
29370;SDS011;16357;52.188;7.838;2023-01-25T14:27:41;41.03;;;23.83;;
29370;SDS011;16357;52.188;7.838;2023-01-25T14:30:14;46.38;;;25.40;;
29370;SDS011;16357;52.188;7.838;2023-01-25T14:32:43;47.17;;;26.58;;
29370;SDS011;16357;52.188;7.838;2023-01-25T14:43:37;46.08;;;25.48;;
29370;SDS011;16357;52.188;7.838;2023-01-25T14:51:14;46.25;;;25.13;;
29370;SDS011;16357;52.188;7.838;2023-01-25T14:53:48;58.17;;;27.48;;
29370;SDS011;16357;52.188;7.838;2023-01-25T14:58:55;51.78;;;28.38;;
29370;SDS011;16357;52.188;7.838;2023-01-25T15:01:29;56.05;;;29.35;;
29370;SDS011;16357;52.188;7.838;2023-01-25T15:03:59;52.28;;;28.80;;
29370;SDS011;16357;52.188;7.838;2023-01-25T15:06:26;60.78;;;31.42;;
29370;SDS011;16357;52.188;7.838;2023-01-25T15:08:52;57.60;;;30.88;;
29370;SDS011;16357;52.188;7.838;2023-01-25T15:11:29;61.33;;;31.67;;
29370;SDS011;16357;52.188;7.838;2023-01-25T15:14:03;65.70;;;33.42;;
29370;SDS011;16357;52.188;7.838;2023-01-25T15:16:45;69.63;;;35.10;;
29370;SDS011;16357;52.188;7.838;2023-01-25T15:21:50;65.78;;;32.25;;
29370;SDS011;16357;52.188;7.838;2023-01-25T15:24:18;74.32;;;36.00;;
29370;SDS011;16357;52.188;7.838;2023-01-25T15:26:48;71.05;;;34.35;;
29370;SDS011;16357;52.188;7.838;2023-01-25T15:29:17;73.88;;;36.40;;
29370;SDS011;16357;52.188;7.838;2023-01-25T15:31:49;71.03;;;35.25;;
29370;SDS011;16357;52.188;7.838;2023-01-25T15:34:19;71.68;;;36.60;;
29370;SDS011;16357;52.188;7.838;2023-01-25T15:36:55;73.88;;;34.20;;
29370;SDS011;16357;52.188;7.838;2023-01-25T15:39:22;73.40;;;35.60;;
29370;SDS011;16357;52.188;7.838;2023-01-25T15:41:49;72.25;;;36.55;;
29370;SDS011;16357;52.188;7.838;2023-01-25T15:44:15;67.38;;;33.03;;
29370;SDS011;16357;52.188;7.838;2023-01-25T15:46:43;67.70;;;36.13;;
29370;SDS011;16357;52.188;7.838;2023-01-25T15:49:17;77.43;;;38.88;;
29370;SDS011;16357;52.188;7.838;2023-01-25T15:51:49;74.18;;;36.95;;
29370;SDS011;16357;52.188;7.838;2023-01-25T15:54:16;74.55;;;38.08;;
29370;SDS011;16357;52.188;7.838;2023-01-25T15:56:42;75.05;;;37.45;;
29370;SDS011;16357;52.188;7.838;2023-01-25T15:59:13;77.80;;;38.80;;
29370;SDS011;16357;52.188;7.838;2023-01-25T16:01:42;76.15;;;38.15;;
29370;SDS011;16357;52.188;7.838;2023-01-25T16:04:09;82.07;;;39.58;;
29370;SDS011;16357;52.188;7.838;2023-01-25T16:06:40;80.32;;;37.35;;
29370;SDS011;16357;52.188;7.838;2023-01-25T16:09:16;77.38;;;37.03;;
29370;SDS011;16357;52.188;7.838;2023-01-25T16:11:53;72.38;;;35.83;;
29370;SDS011;16357;52.188;7.838;2023-01-25T16:14:21;67.82;;;34.75;;
29370;SDS011;16357;52.188;7.838;2023-01-25T16:16:49;92.65;;;44.35;;
29370;SDS011;16357;52.188;7.838;2023-01-25T16:19:18;79.07;;;37.97;;
29370;SDS011;16357;52.188;7.838;2023-01-25T16:21:47;73.35;;;37.50;;
29370;SDS011;16357;52.188;7.838;2023-01-25T16:24:14;77.43;;;39.05;;